sensor_id;sensor_type;location;lat;lon;timestamp;pressure;altitude;pressure_sealevel;temperature;humidity
75936;BME280;64614;32.062;34.834;2023-07-20T00:02:24;99989.69;;;28.82;57.94
75936;BME280;64614;32.062;34.834;2023-07-20T00:04:49;99996.38;;;28.81;57.95
75936;BME280;64614;32.062;34.834;2023-07-20T00:07:15;99995.22;;;28.82;57.99
75936;BME280;64614;32.062;34.834;2023-07-20T00:09:40;100001.19;;;28.84;58.05
75936;BME280;64614;32.062;34.834;2023-07-20T00:12:07;99998.41;;;28.84;58.25
75936;BME280;64614;32.062;34.834;2023-07-20T00:14:32;99999.19;;;28.84;58.00
75936;BME280;64614;32.062;34.834;2023-07-20T00:16:58;99990.13;;;28.84;58.39
75936;BME280;64614;32.062;34.834;2023-07-20T00:19:26;99992.50;;;28.85;58.12
75936;BME280;64614;32.062;34.834;2023-07-20T00:21:53;99992.50;;;28.85;57.98
75936;BME280;64614;32.062;34.834;2023-07-20T00:24:20;99996.09;;;28.86;57.96
75936;BME280;64614;32.062;34.834;2023-07-20T00:26:45;99992.16;;;28.87;58.27
75936;BME280;64614;32.062;34.834;2023-07-20T00:29:11;99983.88;;;28.87;58.11
75936;BME280;64614;32.062;34.834;2023-07-20T00:31:37;99995.31;;;28.89;58.32
75936;BME280;64614;32.062;34.834;2023-07-20T00:34:06;99987.41;;;28.87;58.34
75936;BME280;64614;32.062;34.834;2023-07-20T00:36:32;99993.38;;;28.89;58.09
75936;BME280;64614;32.062;34.834;2023-07-20T00:38:58;99995.75;;;28.91;58.13
75936;BME280;64614;32.062;34.834;2023-07-20T00:41:23;99991.00;;;28.91;58.51
75936;BME280;64614;32.062;34.834;2023-07-20T00:43:49;99989.06;;;28.92;58.01
75936;BME280;64614;32.062;34.834;2023-07-20T00:46:16;99988.63;;;28.90;58.24
75936;BME280;64614;32.062;34.834;2023-07-20T00:48:42;99993.78;;;28.91;58.30
75936;BME280;64614;32.062;34.834;2023-07-20T00:51:08;99986.31;;;28.92;58.08
75936;BME280;64614;32.062;34.834;2023-07-20T00:53:34;99988.69;;;28.93;58.24
75936;BME280;64614;32.062;34.834;2023-07-20T00:56:00;99991.09;;;28.95;58.12
75936;BME280;64614;32.062;34.834;2023-07-20T00:58:26;99990.28;;;28.95;58.19
75936;BME280;64614;32.062;34.834;2023-07-20T01:00:51;99989.50;;;28.94;58.28
75936;BME280;64614;32.062;34.834;2023-07-20T01:03:17;99993.44;;;28.93;58.39
75936;BME280;64614;32.062;34.834;2023-07-20T01:06:12;99998.56;;;28.95;58.18
75936;BME280;64614;32.062;34.834;2023-07-20T01:08:51;99991.50;;;28.97;58.33
75936;BME280;64614;32.062;34.834;2023-07-20T01:11:28;99992.31;;;28.98;58.21
75936;BME280;64614;32.062;34.834;2023-07-20T01:13:57;99991.50;;;28.97;58.30
75936;BME280;64614;32.062;34.834;2023-07-20T01:16:23;99995.44;;;28.96;58.34
75936;BME280;64614;32.062;34.834;2023-07-20T01:18:49;99995.44;;;28.96;58.52
75936;BME280;64614;32.062;34.834;2023-07-20T01:21:23;100001.38;;;28.98;58.27
75936;BME280;64614;32.062;34.834;2023-07-20T01:27:06;100006.13;;;28.98;58.31
75936;BME280;64614;32.062;34.834;2023-07-20T01:32:44;100015.97;;;28.95;58.23
75936;BME280;64614;32.062;34.834;2023-07-20T01:35:13;100014.38;;;28.94;58.41
75936;BME280;64614;32.062;34.834;2023-07-20T01:37:42;100012.78;;;28.93;58.24
75936;BME280;64614;32.062;34.834;2023-07-20T01:40:10;100022.22;;;28.92;58.21
75936;BME280;64614;32.062;34.834;2023-07-20T01:42:36;100015.53;;;28.93;58.34
75936;BME280;64614;32.062;34.834;2023-07-20T01:45:01;100025.44;;;28.94;58.27
75936;BME280;64614;32.062;34.834;2023-07-20T01:47:27;100021.06;;;28.93;58.04
75936;BME280;64614;32.062;34.834;2023-07-20T01:49:53;100021.06;;;28.93;58.42
75936;BME280;64614;32.062;34.834;2023-07-20T01:52:18;100019.09;;;28.93;58.62
75936;BME280;64614;32.062;34.834;2023-07-20T01:54:44;100019.47;;;28.92;58.28
75936;BME280;64614;32.062;34.834;2023-07-20T01:57:09;100017.88;;;28.91;58.74
75936;BME280;64614;32.062;34.834;2023-07-20T01:59:35;100026.16;;;28.91;58.48
75936;BME280;64614;32.062;34.834;2023-07-20T02:02:01;100021.78;;;28.90;58.53
75936;BME280;64614;32.062;34.834;2023-07-20T02:04:26;100018.25;;;28.89;58.61
75936;BME280;64614;32.062;34.834;2023-07-20T02:06:52;100014.31;;;28.90;58.35
75936;BME280;64614;32.062;34.834;2023-07-20T02:09:17;100014.31;;;28.90;58.41
75936;BME280;64614;32.062;34.834;2023-07-20T02:11:43;100011.56;;;28.90;58.79
75936;BME280;64614;32.062;34.834;2023-07-20T02:14:09;100020.63;;;28.91;58.37
75936;BME280;64614;32.062;34.834;2023-07-20T02:16:34;100019.03;;;28.90;58.52
75936;BME280;64614;32.062;34.834;2023-07-20T02:19:00;100022.97;;;28.89;58.17
75936;BME280;64614;32.062;34.834;2023-07-20T02:21:26;100024.94;;;28.88;58.33
75936;BME280;64614;32.062;34.834;2023-07-20T02:23:51;100026.88;;;28.88;58.25
75936;BME280;64614;32.062;34.834;2023-07-20T02:26:17;100026.09;;;28.87;58.47
75936;BME280;64614;32.062;34.834;2023-07-20T02:28:42;100033.63;;;28.87;58.38
75936;BME280;64614;32.062;34.834;2023-07-20T02:31:08;100037.94;;;28.88;58.49
75936;BME280;64614;32.062;34.834;2023-07-20T02:33:34;100039.53;;;28.89;58.38
75936;BME280;64614;32.062;34.834;2023-07-20T02:35:59;100041.91;;;28.87;58.66
75936;BME280;64614;32.062;34.834;2023-07-20T02:38:25;100050.19;;;28.87;58.55
75936;BME280;64614;32.062;34.834;2023-07-20T02:40:50;100052.53;;;28.85;58.77
75936;BME280;64614;32.062;34.834;2023-07-20T02:43:17;100057.22;;;28.84;58.64
75936;BME280;64614;32.062;34.834;2023-07-20T02:45:43;100051.38;;;28.86;58.86
75936;BME280;64614;32.062;34.834;2023-07-20T02:48:09;100063.59;;;28.85;58.78
75936;BME280;64614;32.062;34.834;2023-07-20T02:50:34;100065.91;;;28.83;58.74
75936;BME280;64614;32.062;34.834;2023-07-20T02:53:00;100069.47;;;28.83;58.70
75936;BME280;64614;32.062;34.834;2023-07-20T02:55:26;100064.31;;;28.82;58.96
75936;BME280;64614;32.062;34.834;2023-07-20T02:57:52;100069.84;;;28.82;58.87
75936;BME280;64614;32.062;34.834;2023-07-20T03:00:17;100070.66;;;28.82;58.81
75936;BME280;64614;32.062;34.834;2023-07-20T03:02:47;100065.47;;;28.81;58.79
75936;BME280;64614;32.062;34.834;2023-07-20T03:05:13;100067.88;;;28.82;58.89
75936;BME280;64614;32.062;34.834;2023-07-20T03:07:39;100085.63;;;28.81;59.16
75936;BME280;64614;32.062;34.834;2023-07-20T03:10:05;100083.22;;;28.80;58.63
75936;BME280;64614;32.062;34.834;2023-07-20T03:12:34;100083.22;;;28.80;58.82
75936;BME280;64614;32.062;34.834;2023-07-20T03:15:00;100085.19;;;28.79;58.70
75936;BME280;64614;32.062;34.834;2023-07-20T03:17:26;100092.31;;;28.80;59.00
75936;BME280;64614;32.062;34.834;2023-07-20T03:19:51;100099.44;;;28.81;58.77
75936;BME280;64614;32.062;34.834;2023-07-20T03:22:17;100104.97;;;28.81;58.88
75936;BME280;64614;32.062;34.834;2023-07-20T03:24:43;100106.13;;;28.80;58.53
75936;BME280;64614;32.062;34.834;2023-07-20T03:27:09;100105.75;;;28.82;58.83
75936;BME280;64614;32.062;34.834;2023-07-20T03:29:35;100097.84;;;28.80;58.77
75936;BME280;64614;32.062;34.834;2023-07-20T03:32:00;100109.69;;;28.81;58.73
75936;BME280;64614;32.062;34.834;2023-07-20T03:34:26;100109.34;;;28.82;58.66
75936;BME280;64614;32.062;34.834;2023-07-20T03:36:51;100114.06;;;28.82;58.47
75936;BME280;64614;32.062;34.834;2023-07-20T03:39:17;100115.22;;;28.81;58.87
75936;BME280;64614;32.062;34.834;2023-07-20T03:41:43;100111.28;;;28.82;58.67
75936;BME280;64614;32.062;34.834;2023-07-20T03:44:08;100117.97;;;28.81;58.89
75936;BME280;64614;32.062;34.834;2023-07-20T03:46:34;100116.03;;;28.81;58.67
75936;BME280;64614;32.062;34.834;2023-07-20T03:49:00;100120.75;;;28.81;58.96
75936;BME280;64614;32.062;34.834;2023-07-20T03:51:26;100126.28;;;28.81;58.99
75936;BME280;64614;32.062;34.834;2023-07-20T03:53:51;100121.56;;;28.81;58.51
75936;BME280;64614;32.062;34.834;2023-07-20T03:56:17;100134.22;;;28.82;58.95
75936;BME280;64614;32.062;34.834;2023-07-20T03:58:43;100133.84;;;28.84;58.67
75936;BME280;64614;32.062;34.834;2023-07-20T04:01:08;100127.13;;;28.85;58.91
75936;BME280;64614;32.062;34.834;2023-07-20T04:03:35;100133.47;;;28.85;58.88
75936;BME280;64614;32.062;34.834;2023-07-20T04:06:01;100129.47;;;28.83;58.52
75936;BME280;64614;32.062;34.834;2023-07-20T04:08:27;100136.97;;;28.82;58.80
75936;BME280;64614;32.062;34.834;2023-07-20T04:10:53;100139.75;;;28.82;58.96
75936;BME280;64614;32.062;34.834;2023-07-20T04:13:18;100149.59;;;28.83;58.55
75936;BME280;64614;32.062;34.834;2023-07-20T04:15:44;100141.31;;;28.83;58.68
75936;BME280;64614;32.062;34.834;2023-07-20T04:18:10;100141.31;;;28.83;58.49
75936;BME280;64614;32.062;34.834;2023-07-20T04:20:36;100136.16;;;28.82;58.75
75936;BME280;64614;32.062;34.834;2023-07-20T04:23:01;100144.88;;;28.84;58.71
75936;BME280;64614;32.062;34.834;2023-07-20T04:25:27;100146.84;;;28.83;58.48
75936;BME280;64614;32.062;34.834;2023-07-20T04:27:53;100146.06;;;28.83;58.63
75936;BME280;64614;32.062;34.834;2023-07-20T04:30:19;100144.44;;;28.82;58.60
75936;BME280;64614;32.062;34.834;2023-07-20T04:32:46;100146.44;;;28.81;58.24
75936;BME280;64614;32.062;34.834;2023-07-20T04:36:01;100145.59;;;28.81;58.29
75936;BME280;64614;32.062;34.834;2023-07-20T04:38:02;100144.75;;;28.76;58.28
75936;BME280;64614;32.062;34.834;2023-07-20T04:40:28;100145.94;;;28.75;58.17
75936;BME280;64614;32.062;34.834;2023-07-20T04:42:53;100158.94;;;28.75;57.90
75936;BME280;64614;32.062;34.834;2023-07-20T04:45:19;100150.56;;;28.71;58.06
75936;BME280;64614;32.062;34.834;2023-07-20T04:47:44;100155.22;;;28.67;57.66
75936;BME280;64614;32.062;34.834;2023-07-20T04:50:10;100160.19;;;28.58;57.14
75936;BME280;64614;32.062;34.834;2023-07-20T04:52:36;100159.53;;;28.45;57.17
75936;BME280;64614;32.062;34.834;2023-07-20T04:55:01;100160.56;;;28.37;56.90
75936;BME280;64614;32.062;34.834;2023-07-20T04:57:29;100169.41;;;28.26;56.42
75936;BME280;64614;32.062;34.834;2023-07-20T04:59:55;100175.59;;;28.20;56.53
75936;BME280;64614;32.062;34.834;2023-07-20T05:02:21;100174.28;;;28.13;56.22
75936;BME280;64614;32.062;34.834;2023-07-20T05:04:46;100169.75;;;28.05;56.45
75936;BME280;64614;32.062;34.834;2023-07-20T05:07:12;100179.09;;;28.01;56.51
75936;BME280;64614;32.062;34.834;2023-07-20T05:09:37;100176.19;;;27.93;56.04
75936;BME280;64614;32.062;34.834;2023-07-20T05:12:03;100177.28;;;27.89;56.08
75936;BME280;64614;32.062;34.834;2023-07-20T05:14:29;100183.06;;;27.83;56.40
75936;BME280;64614;32.062;34.834;2023-07-20T05:16:55;100179.13;;;27.84;56.47
75936;BME280;64614;32.062;34.834;2023-07-20T05:19:20;100177.53;;;27.83;57.10
75936;BME280;64614;32.062;34.834;2023-07-20T05:21:46;100184.66;;;27.84;56.94
75936;BME280;64614;32.062;34.834;2023-07-20T05:24:11;100175.22;;;27.86;56.92
75936;BME280;64614;32.062;34.834;2023-07-20T05:26:37;100173.69;;;27.88;56.94
75936;BME280;64614;32.062;34.834;2023-07-20T05:29:03;100180.03;;;27.89;57.10
75936;BME280;64614;32.062;34.834;2023-07-20T05:31:29;100176.13;;;27.90;57.43
75936;BME280;64614;32.062;34.834;2023-07-20T05:33:56;100171.84;;;27.92;56.98
75936;BME280;64614;32.062;34.834;2023-07-20T05:36:21;100175.81;;;27.95;57.19
75936;BME280;64614;32.062;34.834;2023-07-20T05:38:47;100171.91;;;27.96;57.35
75936;BME280;64614;32.062;34.834;2023-07-20T05:41:13;100163.63;;;27.96;57.56
75936;BME280;64614;32.062;34.834;2023-07-20T05:43:39;100173.59;;;28.01;57.24
75936;BME280;64614;32.062;34.834;2023-07-20T05:46:04;100176.41;;;28.04;57.14
75936;BME280;64614;32.062;34.834;2023-07-20T05:48:30;100173.28;;;28.06;57.14
75936;BME280;64614;32.062;34.834;2023-07-20T05:50:56;100179.28;;;28.08;57.48
75936;BME280;64614;32.062;34.834;2023-07-20T05:53:21;100182.13;;;28.11;57.08
75936;BME280;64614;32.062;34.834;2023-07-20T05:55:54;100175.44;;;28.12;57.26
75936;BME280;64614;32.062;34.834;2023-07-20T05:58:19;100174.28;;;28.13;57.62
75936;BME280;64614;32.062;34.834;2023-07-20T06:00:49;100174.72;;;28.16;57.21
75936;BME280;64614;32.062;34.834;2023-07-20T06:03:15;100181.09;;;28.20;57.75
75936;BME280;64614;32.062;34.834;2023-07-20T06:05:45;100177.97;;;28.21;57.53
75936;BME280;64614;32.062;34.834;2023-07-20T06:08:11;100173.28;;;28.22;57.11
75936;BME280;64614;32.062;34.834;2023-07-20T06:10:36;100169.78;;;28.25;57.67
75936;BME280;64614;32.062;34.834;2023-07-20T06:13:02;100171.81;;;28.28;57.49
75936;BME280;64614;32.062;34.834;2023-07-20T06:15:31;100165.13;;;28.29;57.45
75936;BME280;64614;32.062;34.834;2023-07-20T06:17:56;100167.16;;;28.32;57.62
75936;BME280;64614;32.062;34.834;2023-07-20T06:20:23;100170.34;;;28.34;57.47
75936;BME280;64614;32.062;34.834;2023-07-20T06:22:49;100166.88;;;28.37;57.46
75936;BME280;64614;32.062;34.834;2023-07-20T06:25:15;100167.31;;;28.39;57.50
75936;BME280;64614;32.062;34.834;2023-07-20T06:27:42;100166.16;;;28.40;57.39
75936;BME280;64614;32.062;34.834;2023-07-20T06:30:08;100170.16;;;28.43;57.49
75936;BME280;64614;32.062;34.834;2023-07-20T06:32:34;100171.38;;;28.45;57.29
75936;BME280;64614;32.062;34.834;2023-07-20T06:34:59;100169.44;;;28.46;57.26
75936;BME280;64614;32.062;34.834;2023-07-20T06:37:25;100174.56;;;28.48;57.21
75936;BME280;64614;32.062;34.834;2023-07-20T06:39:51;100173.03;;;28.50;57.28
75936;BME280;64614;32.062;34.834;2023-07-20T06:42:17;100173.84;;;28.51;57.15
75936;BME280;64614;32.062;34.834;2023-07-20T06:44:42;100169.56;;;28.53;57.01
75936;BME280;64614;32.062;34.834;2023-07-20T06:47:08;100173.09;;;28.54;57.16
75936;BME280;64614;32.062;34.834;2023-07-20T06:49:33;100165.25;;;28.56;57.09
75936;BME280;64614;32.062;34.834;2023-07-20T06:51:59;100166.88;;;28.57;57.34
75936;BME280;64614;32.062;34.834;2023-07-20T06:54:25;100170.06;;;28.59;57.29
75936;BME280;64614;32.062;34.834;2023-07-20T06:56:50;100160.63;;;28.60;57.17
75936;BME280;64614;32.062;34.834;2023-07-20T06:59:16;100162.19;;;28.61;57.05
75936;BME280;64614;32.062;34.834;2023-07-20T07:01:42;100161.03;;;28.62;57.08
75936;BME280;64614;32.062;34.834;2023-07-20T07:04:08;100159.88;;;28.63;57.02
75936;BME280;64614;32.062;34.834;2023-07-20T07:06:34;100165.84;;;28.65;57.16
75936;BME280;64614;32.062;34.834;2023-07-20T07:09:00;100160.75;;;28.67;57.11
75936;BME280;64614;32.062;34.834;2023-07-20T07:11:26;100169.03;;;28.67;57.25
75936;BME280;64614;32.062;34.834;2023-07-20T07:13:53;100156.38;;;28.66;57.19
75936;BME280;64614;32.062;34.834;2023-07-20T07:16:18;100156.81;;;28.68;57.03
75936;BME280;64614;32.062;34.834;2023-07-20T07:18:49;100158.44;;;28.69;57.24
75936;BME280;64614;32.062;34.834;2023-07-20T07:21:15;100155.31;;;28.71;56.96
75936;BME280;64614;32.062;34.834;2023-07-20T07:23:41;100156.09;;;28.71;56.92
75936;BME280;64614;32.062;34.834;2023-07-20T07:26:07;100159.69;;;28.72;57.46
75936;BME280;64614;32.062;34.834;2023-07-20T07:28:33;100154.94;;;28.72;57.46
75936;BME280;64614;32.062;34.834;2023-07-20T07:30:58;100153.00;;;28.73;57.16
75936;BME280;64614;32.062;34.834;2023-07-20T07:33:24;100151.00;;;28.73;56.96
75936;BME280;64614;32.062;34.834;2023-07-20T07:35:50;100149.84;;;28.74;56.89
75936;BME280;64614;32.062;34.834;2023-07-20T07:38:20;100146.28;;;28.74;57.03
75936;BME280;64614;32.062;34.834;2023-07-20T07:40:46;100148.31;;;28.77;57.14
75936;BME280;64614;32.062;34.834;2023-07-20T07:43:12;100147.53;;;28.76;56.98
75936;BME280;64614;32.062;34.834;2023-07-20T07:45:39;100153.06;;;28.76;57.04
75936;BME280;64614;32.062;34.834;2023-07-20T07:48:06;100144.38;;;28.78;57.14
75936;BME280;64614;32.062;34.834;2023-07-20T07:50:33;100151.06;;;28.77;56.79
75936;BME280;64614;32.062;34.834;2023-07-20T07:52:59;100143.59;;;28.77;56.68
75936;BME280;64614;32.062;34.834;2023-07-20T07:55:25;100146.00;;;28.79;57.35
75936;BME280;64614;32.062;34.834;2023-07-20T07:57:52;100139.66;;;28.79;56.98
75936;BME280;64614;32.062;34.834;2023-07-20T08:00:18;100142.06;;;28.80;56.89
75936;BME280;64614;32.062;34.834;2023-07-20T08:02:45;100141.25;;;28.80;56.98
75936;BME280;64614;32.062;34.834;2023-07-20T08:05:14;100142.84;;;28.81;57.32
75936;BME280;64614;32.062;34.834;2023-07-20T08:07:40;100143.66;;;28.81;57.12
75936;BME280;64614;32.062;34.834;2023-07-20T08:10:06;100142.84;;;28.81;56.81
75936;BME280;64614;32.062;34.834;2023-07-20T08:12:32;100131.44;;;28.82;57.36
75936;BME280;64614;32.062;34.834;2023-07-20T08:14:58;100137.75;;;28.83;57.21
75936;BME280;64614;32.062;34.834;2023-07-20T08:17:24;100137.75;;;28.83;57.16
75936;BME280;64614;32.062;34.834;2023-07-20T08:19:50;100135.00;;;28.83;57.18
75936;BME280;64614;32.062;34.834;2023-07-20T08:22:15;100129.91;;;28.85;57.27
75936;BME280;64614;32.062;34.834;2023-07-20T08:24:42;100136.22;;;28.85;56.83
75936;BME280;64614;32.062;34.834;2023-07-20T08:27:08;100129.91;;;28.85;57.20
75936;BME280;64614;32.062;34.834;2023-07-20T08:29:34;100134.28;;;28.86;57.05
75936;BME280;64614;32.062;34.834;2023-07-20T08:32:01;100135.06;;;28.86;57.11
75936;BME280;64614;32.062;34.834;2023-07-20T08:34:27;100122.84;;;28.87;57.00
75936;BME280;64614;32.062;34.834;2023-07-20T08:36:52;100122.47;;;28.89;57.32
75936;BME280;64614;32.062;34.834;2023-07-20T08:39:18;100128.00;;;28.89;57.17
75936;BME280;64614;32.062;34.834;2023-07-20T08:41:44;100132.34;;;28.90;57.42
75936;BME280;64614;32.062;34.834;2023-07-20T08:44:10;100126.81;;;28.90;57.23
75936;BME280;64614;32.062;34.834;2023-07-20T08:46:38;100136.72;;;28.91;57.11
75936;BME280;64614;32.062;34.834;2023-07-20T08:49:05;100133.56;;;28.92;57.43
75936;BME280;64614;32.062;34.834;2023-07-20T08:51:32;100128.03;;;28.92;57.23
75936;BME280;64614;32.062;34.834;2023-07-20T08:53:58;100128.03;;;28.92;57.08
75936;BME280;64614;32.062;34.834;2023-07-20T08:56:25;100142.31;;;28.95;57.44
75936;BME280;64614;32.062;34.834;2023-07-20T08:58:54;100130.47;;;28.94;57.22
75936;BME280;64614;32.062;34.834;2023-07-20T09:01:20;100126.53;;;28.95;57.20
75936;BME280;64614;32.062;34.834;2023-07-20T09:03:48;100125.34;;;28.96;57.20
75936;BME280;64614;32.062;34.834;2023-07-20T09:06:14;100126.53;;;28.95;57.43
75936;BME280;64614;32.062;34.834;2023-07-20T09:08:41;100130.88;;;28.96;57.00
75936;BME280;64614;32.062;34.834;2023-07-20T09:11:08;100131.31;;;28.98;57.08
75936;BME280;64614;32.062;34.834;2023-07-20T09:13:34;100131.31;;;28.98;57.30
75936;BME280;64614;32.062;34.834;2023-07-20T09:16:00;100117.03;;;28.96;57.21
75936;BME280;64614;32.062;34.834;2023-07-20T09:18:27;100116.31;;;28.99;57.21
75936;BME280;64614;32.062;34.834;2023-07-20T09:21:05;100127.38;;;28.99;57.06
75936;BME280;64614;32.062;34.834;2023-07-20T09:23:36;100123.81;;;28.99;57.15
75936;BME280;64614;32.062;34.834;2023-07-20T09:26:12;100131.31;;;28.98;57.17
75936;BME280;64614;32.062;34.834;2023-07-20T09:28:57;100134.50;;;29.00;57.25
75936;BME280;64614;32.062;34.834;2023-07-20T09:31:22;100132.91;;;28.99;57.19
75936;BME280;64614;32.062;34.834;2023-07-20T09:33:49;100132.91;;;28.99;57.39
75936;BME280;64614;32.062;34.834;2023-07-20T09:36:15;100137.28;;;29.00;57.61
75936;BME280;64614;32.062;34.834;2023-07-20T09:38:44;100134.50;;;29.00;57.44
75936;BME280;64614;32.062;34.834;2023-07-20T09:41:15;100135.28;;;29.01;57.43
75936;BME280;64614;32.062;34.834;2023-07-20T09:43:45;100127.81;;;29.01;57.22
75936;BME280;64614;32.062;34.834;2023-07-20T09:46:11;100130.56;;;29.01;57.30
75936;BME280;64614;32.062;34.834;2023-07-20T09:48:37;100129.75;;;29.01;57.03
75936;BME280;64614;32.062;34.834;2023-07-20T09:51:03;100129.41;;;29.02;57.21
75936;BME280;64614;32.062;34.834;2023-07-20T09:53:32;100137.72;;;29.02;57.27
75936;BME280;64614;32.062;34.834;2023-07-20T09:55:59;100125.84;;;29.02;57.44
75936;BME280;64614;32.062;34.834;2023-07-20T09:58:28;100134.13;;;29.02;56.88
75936;BME280;64614;32.062;34.834;2023-07-20T10:00:57;100127.44;;;29.03;57.29
75936;BME280;64614;32.062;34.834;2023-07-20T10:03:26;100128.66;;;29.05;57.37
75936;BME280;64614;32.062;34.834;2023-07-20T10:06:00;100135.38;;;29.04;57.13
75936;BME280;64614;32.062;34.834;2023-07-20T10:08:29;100126.66;;;29.02;57.50
75936;BME280;64614;32.062;34.834;2023-07-20T10:10:57;100127.44;;;29.03;57.21
75936;BME280;64614;32.062;34.834;2023-07-20T10:13:27;100128.25;;;29.03;57.02
75936;BME280;64614;32.062;34.834;2023-07-20T10:16:07;100119.97;;;29.03;57.22
75936;BME280;64614;32.062;34.834;2023-07-20T10:18:41;100121.13;;;29.02;57.27
75936;BME280;64614;32.062;34.834;2023-07-20T10:21:15;100121.13;;;29.02;57.45
75936;BME280;64614;32.062;34.834;2023-07-20T10:23:42;100114.00;;;29.01;57.09
75936;BME280;64614;32.062;34.834;2023-07-20T10:26:09;100115.59;;;29.02;57.36
75936;BME280;64614;32.062;34.834;2023-07-20T10:28:36;100111.22;;;29.01;56.96
75936;BME280;64614;32.062;34.834;2023-07-20T10:31:03;100114.78;;;29.02;57.30
75936;BME280;64614;32.062;34.834;2023-07-20T10:33:29;100102.94;;;29.01;57.17
75936;BME280;64614;32.062;34.834;2023-07-20T10:35:57;100102.94;;;29.01;56.98
75936;BME280;64614;32.062;34.834;2023-07-20T10:38:58;100109.25;;;29.02;57.10
75936;BME280;64614;32.062;34.834;2023-07-20T10:41:33;100112.00;;;29.02;57.09
75936;BME280;64614;32.062;34.834;2023-07-20T10:44:02;100102.13;;;29.01;57.11
75936;BME280;64614;32.062;34.834;2023-07-20T10:46:41;100098.56;;;29.00;57.19
75936;BME280;64614;32.062;34.834;2023-07-20T10:49:10;100100.94;;;29.02;57.11
75936;BME280;64614;32.062;34.834;2023-07-20T10:51:39;100105.69;;;29.01;56.93
75936;BME280;64614;32.062;34.834;2023-07-20T10:57:24;100103.72;;;29.02;57.15
75936;BME280;64614;32.062;34.834;2023-07-20T10:59:50;100114.78;;;29.02;57.13
75936;BME280;64614;32.062;34.834;2023-07-20T11:02:18;100114.00;;;29.01;57.21
75936;BME280;64614;32.062;34.834;2023-07-20T11:04:46;100110.41;;;29.01;56.96
75936;BME280;64614;32.062;34.834;2023-07-20T11:07:16;100122.72;;;29.03;57.00
75936;BME280;64614;32.062;34.834;2023-07-20T11:09:43;100115.59;;;29.02;56.96
75936;BME280;64614;32.062;34.834;2023-07-20T11:12:13;100101.78;;;29.02;57.05
75936;BME280;64614;32.062;34.834;2023-07-20T11:14:52;100115.59;;;29.02;57.16
75936;BME280;64614;32.062;34.834;2023-07-20T11:17:19;100102.94;;;29.01;56.89
75936;BME280;64614;32.062;34.834;2023-07-20T11:19:55;100117.19;;;29.03;56.58
75936;BME280;64614;32.062;34.834;2023-07-20T11:22:22;100115.59;;;29.02;57.08
75936;BME280;64614;32.062;34.834;2023-07-20T11:24:48;100103.72;;;29.02;56.96
75936;BME280;64614;32.062;34.834;2023-07-20T11:27:14;100114.78;;;29.02;57.04
75936;BME280;64614;32.062;34.834;2023-07-20T11:29:40;100106.13;;;29.03;56.90
75936;BME280;64614;32.062;34.834;2023-07-20T11:32:06;100098.19;;;29.02;57.09
75936;BME280;64614;32.062;34.834;2023-07-20T11:34:33;100097.03;;;29.03;57.01
75936;BME280;64614;32.062;34.834;2023-07-20T11:37:00;100104.97;;;29.04;57.29
75936;BME280;64614;32.062;34.834;2023-07-20T11:39:26;100118.78;;;29.04;57.07
75936;BME280;64614;32.062;34.834;2023-07-20T11:41:56;100115.22;;;29.04;56.76
75936;BME280;64614;32.062;34.834;2023-07-20T11:44:23;100116.03;;;29.04;57.05
75936;BME280;64614;32.062;34.834;2023-07-20T11:47:09;100105.75;;;29.05;56.83
75936;BME280;64614;32.062;34.834;2023-07-20T11:49:41;100121.97;;;29.06;57.06
75936;BME280;64614;32.062;34.834;2023-07-20T11:52:08;100105.38;;;29.06;56.67
75936;BME280;64614;32.062;34.834;2023-07-20T11:54:35;100119.19;;;29.06;56.68
75936;BME280;64614;32.062;34.834;2023-07-20T11:57:01;100106.97;;;29.07;56.71
75936;BME280;64614;32.062;34.834;2023-07-20T11:59:27;100119.19;;;29.06;56.83
75936;BME280;64614;32.062;34.834;2023-07-20T12:01:53;100111.72;;;29.07;56.69
75936;BME280;64614;32.062;34.834;2023-07-20T12:04:19;100131.84;;;29.07;56.76
75936;BME280;64614;32.062;34.834;2023-07-20T12:06:45;100125.16;;;29.08;56.57
75936;BME280;64614;32.062;34.834;2023-07-20T12:09:16;100134.28;;;29.09;56.68
75936;BME280;64614;32.062;34.834;2023-07-20T12:11:43;100117.69;;;29.09;56.60
75936;BME280;64614;32.062;34.834;2023-07-20T12:14:10;100122.03;;;29.10;56.83
75936;BME280;64614;32.062;34.834;2023-07-20T12:16:37;100133.06;;;29.10;56.86
75936;BME280;64614;32.062;34.834;2023-07-20T12:19:13;100133.88;;;29.11;56.86
75936;BME280;64614;32.062;34.834;2023-07-20T12:21:40;100134.69;;;29.11;56.76
75936;BME280;64614;32.062;34.834;2023-07-20T12:24:07;100138.25;;;29.12;56.83
75936;BME280;64614;32.062;34.834;2023-07-20T12:26:34;100135.50;;;29.12;57.05
75936;BME280;64614;32.062;34.834;2023-07-20T12:29:00;100128.38;;;29.11;56.69
75936;BME280;64614;32.062;34.834;2023-07-20T12:31:27;100118.91;;;29.12;56.60
75936;BME280;64614;32.062;34.834;2023-07-20T12:33:54;100129.97;;;29.12;56.61
75936;BME280;64614;32.062;34.834;2023-07-20T12:36:22;100131.56;;;29.13;56.83
75936;BME280;64614;32.062;34.834;2023-07-20T12:38:48;100132.34;;;29.13;57.01
75936;BME280;64614;32.062;34.834;2023-07-20T12:41:14;100119.31;;;29.14;56.84
75936;BME280;64614;32.062;34.834;2023-07-20T12:43:43;100122.06;;;29.14;56.92
75936;BME280;64614;32.062;34.834;2023-07-20T12:46:10;100111.00;;;29.14;56.76
75936;BME280;64614;32.062;34.834;2023-07-20T12:48:40;100128.41;;;29.14;56.71
75936;BME280;64614;32.062;34.834;2023-07-20T12:51:08;100114.22;;;29.16;56.77